Time;durP1;ratioP1;P1;durP2;ratioP2;P2;SDS_P1;SDS_P2;PMS_P1;PMS_P2;Temp;Humidity;BMP_temperature;BMP_pressure;BME280_temperature;BME280_humidity;BME280_pressure;Samples;Min_cycle;Max_cycle;Signal;HPM_P1;HPM_P2
2021/06/09 00:01:45;;;;;;;13.98;4.57;;;;;;;13.16;75.41;96332.53;5134062;28;20544;-62
2021/06/09 00:04:10;;;;;;;8.90;4.55;;;;;;;13.18;76.03;96333.31;5134200;28;20102;-62
2021/06/09 00:06:37;;;;;;;8.48;3.97;;;;;;;13.17;75.65;96329.84;5134047;28;20027;-62
2021/06/09 00:09:04;;;;;;;7.72;4.38;;;;;;;13.15;76.18;96331.69;5134008;28;20027;-61
2021/06/09 00:11:30;;;;;;;11.77;4.80;;;;;;;13.09;76.49;96339.88;5133702;28;20396;-61
2021/06/09 00:13:56;;;;;;;9.30;4.38;;;;;;;13.11;75.86;96332.78;5133973;28;20027;-62
2021/06/09 00:16:22;;;;;;;5.53;3.80;;;;;;;13.13;75.71;96328.31;5133945;28;20226;-62
2021/06/09 00:18:49;;;;;;;14.13;3.95;;;;;;;13.16;75.45;96325.53;5133954;28;20051;-62
2021/06/09 00:21:16;;;;;;;6.28;3.63;;;;;;;13.18;74.81;96330.69;5133989;28;20023;-62
2021/06/09 00:23:42;;;;;;;11.93;4.72;;;;;;;13.14;75.43;96328.22;5135984;27;20019;-62
2021/06/09 00:26:08;;;;;;;7.13;3.90;;;;;;;13.10;75.83;96331.91;5137910;27;20019;-62
2021/06/09 00:28:35;;;;;;;18.45;4.40;;;;;;;13.08;75.98;96330.31;5137979;27;20094;-62
2021/06/09 00:31:04;;;;;;;7.63;4.43;;;;;;;12.99;76.48;96327.22;5137991;27;20023;-62
2021/06/09 00:33:29;;;;;;;14.68;5.05;;;;;;;12.98;76.15;96325.50;5138120;27;20015;-62
2021/06/09 00:35:57;;;;;;;9.20;4.22;;;;;;;12.95;76.13;96335.34;5137936;27;20499;-62
2021/06/09 00:38:23;;;;;;;12.13;4.80;;;;;;;12.92;76.61;96325.84;5137971;27;20019;-62
2021/06/09 00:40:49;;;;;;;6.25;4.25;;;;;;;12.86;76.76;96334.03;5137890;27;20035;-61
2021/06/09 00:43:20;;;;;;;7.30;4.38;;;;;;;12.84;76.37;96328.88;5137604;27;20030;-62
2021/06/09 00:45:52;;;;;;;7.38;4.75;;;;;;;12.86;76.59;96331.41;5137691;27;20081;-62
2021/06/09 00:48:18;;;;;;;10.75;4.90;;;;;;;12.88;76.60;96329.53;5137822;27;20469;-61
2021/06/09 00:50:44;;;;;;;8.10;4.30;;;;;;;12.88;76.63;96332.16;5137555;27;20164;-62
2021/06/09 00:53:28;;;;;;;13.38;4.28;;;;;;;12.91;76.03;96334.63;5137503;27;20515;-62
2021/06/09 00:55:55;;;;;;;11.20;3.80;;;;;;;12.91;75.79;96334.63;5137428;27;20479;-61
2021/06/09 00:58:22;;;;;;;12.73;4.65;;;;;;;12.86;76.07;96332.25;5137623;27;20023;-62
2021/06/09 01:00:47;;;;;;;11.50;4.50;;;;;;;12.88;76.06;96329.53;5137411;27;20144;-62
2021/06/09 01:03:13;;;;;;;12.95;4.10;;;;;;;12.92;76.28;96328.47;5137200;27;20110;-62
2021/06/09 01:05:39;;;;;;;12.18;4.25;;;;;;;12.95;75.51;96324.84;5137228;27;20015;-61
2021/06/09 01:08:06;;;;;;;6.47;4.40;;;;;;;12.93;76.12;96324.91;5137207;27;20472;-62
2021/06/09 01:10:32;;;;;;;14.57;4.55;;;;;;;12.95;76.66;96324.84;5137243;27;20030;-61
2021/06/09 01:12:59;;;;;;;9.90;4.00;;;;;;;12.93;76.40;96329.31;5136772;27;20064;-61
2021/06/09 01:15:26;;;;;;;12.18;4.53;;;;;;;12.91;76.66;96332.00;5137004;27;20103;-62
2021/06/09 01:17:52;;;;;;;5.85;3.90;;;;;;;12.97;76.52;96328.22;5137044;27;20019;-61
2021/06/09 01:20:20;;;;;;;12.07;5.70;;;;;;;12.99;76.31;96326.38;5137087;27;20015;-62
2021/06/09 01:22:45;;;;;;;10.73;5.70;;;;;;;12.94;76.31;96323.97;5137012;27;20384;-62
2021/06/09 01:25:12;;;;;;;13.65;6.65;;;;;;;12.92;76.64;96311.88;5136873;27;20019;-62
2021/06/09 01:27:39;;;;;;;7.60;5.35;;;;;;;12.82;78.24;96312.31;5136856;27;20016;-62
2021/06/09 01:30:10;;;;;;;14.15;5.00;;;;;;;12.85;78.31;96313.94;5136874;27;20082;-62
2021/06/09 01:32:36;;;;;;;16.02;6.03;;;;;;;12.86;77.64;96311.25;5136846;27;20495;-62
2021/06/09 01:35:03;;;;;;;12.60;6.28;;;;;;;12.91;77.03;96312.81;5136426;27;20024;-62
2021/06/09 01:37:28;;;;;;;5.43;4.68;;;;;;;12.93;77.17;96303.06;5136655;27;20026;-62
2021/06/09 01:39:55;;;;;;;12.82;4.82;;;;;;;12.98;76.66;96317.63;5136689;27;20110;-62
2021/06/09 01:42:24;;;;;;;14.65;5.18;;;;;;;13.01;77.10;96314.84;5136543;27;20043;-62
2021/06/09 01:44:50;;;;;;;8.77;5.57;;;;;;;13.01;77.03;96314.03;5136511;27;20027;-62
2021/06/09 01:47:17;;;;;;;9.25;4.80;;;;;;;12.98;77.29;96315.00;5136605;27;20032;-61
2021/06/09 01:49:42;;;;;;;13.68;4.72;;;;;;;12.94;76.73;96318.72;5136336;27;20564;-62
2021/06/09 01:52:08;;;;;;;6.80;3.92;;;;;;;12.96;76.20;96316.88;5117970;27;20028;-62
2021/06/09 01:54:33;;;;;;;8.38;4.13;;;;;;;12.96;76.28;96322.13;5136342;27;20015;-61
2021/06/09 01:56:59;;;;;;;8.50;5.05;;;;;;;12.93;76.44;96314.41;5136365;27;20507;-62
2021/06/09 01:59:25;;;;;;;7.03;4.20;;;;;;;12.96;76.83;96316.88;5136292;27;20485;-61
2021/06/09 02:01:50;;;;;;;12.38;4.57;;;;;;;12.97;76.91;96317.72;5136086;27;20460;-61
2021/06/09 02:04:17;;;;;;;10.55;4.63;;;;;;;12.96;76.82;96316.88;5136096;27;20015;-62
2021/06/09 02:06:44;;;;;;;10.80;3.85;;;;;;;13.02;76.61;96320.97;5136108;27;20038;-61
2021/06/09 02:09:12;;;;;;;5.90;3.97;;;;;;;12.99;76.10;96323.75;5136062;27;20030;-62
2021/06/09 02:11:43;;;;;;;7.78;4.43;;;;;;;12.95;76.27;96323.06;5135891;27;20032;-62
2021/06/09 02:14:10;;;;;;;6.25;4.10;;;;;;;12.96;76.12;96326.53;5136050;27;20045;-61
2021/06/09 02:16:37;;;;;;;15.48;3.83;;;;;;;12.92;76.23;96325.84;5135981;27;20362;-61
2021/06/09 02:19:04;;;;;;;10.73;3.83;;;;;;;12.92;76.21;96320.59;5135810;27;20019;-62
2021/06/09 02:21:31;;;;;;;6.05;4.50;;;;;;;12.93;76.47;96319.66;5135830;27;20023;-62
2021/06/09 02:23:57;;;;;;;7.22;3.85;;;;;;;12.94;76.40;96323.16;5135895;27;20034;-61
2021/06/09 02:26:24;;;;;;;8.48;4.47;;;;;;;12.96;76.13;96324.75;5135758;27;20027;-61
2021/06/09 02:28:49;;;;;;;8.55;4.47;;;;;;;12.93;76.16;96322.28;5135694;27;20019;-61
2021/06/09 02:31:16;;;;;;;6.63;3.50;;;;;;;12.92;75.73;96323.22;5135554;27;20026;-61
2021/06/09 02:33:43;;;;;;;12.02;4.07;;;;;;;12.93;76.07;96322.28;5135647;27;20480;-61
2021/06/09 02:36:09;;;;;;;13.23;3.90;;;;;;;12.88;76.14;96324.28;5135537;27;20023;-61
2021/06/09 02:38:39;;;;;;;10.90;4.13;;;;;;;12.85;76.33;96317.44;5135481;27;20027;-62
2021/06/09 02:41:05;;;;;;;9.27;3.67;;;;;;;12.82;76.09;96314.13;5135339;27;20058;-62
2021/06/09 02:43:32;;;;;;;8.75;4.15;;;;;;;12.84;76.48;96313.13;5135387;27;20256;-62
2021/06/09 02:46:20;;;;;;;7.90;3.63;;;;;;;12.85;76.84;96317.44;5134566;27;20019;-62
2021/06/09 02:48:52;;;;;;;8.25;4.35;;;;;;;12.89;76.43;96320.75;5135286;27;20038;-62
2021/06/09 02:51:19;;;;;;;7.53;3.72;;;;;;;12.91;76.42;96318.06;5135268;27;20023;-62
2021/06/09 02:54:11;;;;;;;6.70;4.18;;;;;;;12.95;76.63;96319.59;5135153;27;20435;-62
2021/06/09 02:56:53;;;;;;;7.70;3.83;;;;;;;12.98;76.49;96320.25;5103092;27;20035;-62
2021/06/09 02:59:48;;;;;;;8.30;4.30;;;;;;;13.00;77.04;96328.91;5135134;27;20023;-62
2021/06/09 03:02:36;;;;;;;6.95;4.63;;;;;;;13.03;76.68;96333.16;5135004;27;20038;-62
2021/06/09 03:05:40;;;;;;;7.60;3.88;;;;;;;13.06;76.69;96335.63;5135259;27;20023;-62
2021/06/09 03:08:23;;;;;;;9.82;4.20;;;;;;;13.10;76.90;96337.16;5134861;27;20019;-62
2021/06/09 03:11:12;;;;;;;7.63;4.45;;;;;;;13.12;77.43;96330.06;5135022;27;20023;-62
2021/06/09 03:14:02;;;;;;;12.70;5.30;;;;;;;13.21;77.28;96335.75;5134673;27;20039;-62
2021/06/09 03:16:42;;;;;;;8.18;4.15;;;;;;;13.24;77.35;96336.47;5134852;27;20035;-62
2021/06/09 03:19:17;;;;;;;6.10;4.03;;;;;;;13.33;77.23;96332.50;5134788;27;20380;-61
2021/06/09 03:21:48;;;;;;;6.88;4.30;;;;;;;13.42;77.32;96335.59;5134713;27;20023;-62
2021/06/09 03:24:38;;;;;;;12.60;4.38;;;;;;;13.47;76.70;96337.03;5134758;27;20027;-62
2021/06/09 03:27:14;;;;;;;10.40;3.60;;;;;;;13.51;76.79;96338.59;5134720;27;20490;-62
2021/06/09 03:29:45;;;;;;;12.43;3.90;;;;;;;13.58;76.67;96335.66;5134541;27;20464;-62
2021/06/09 03:32:33;;;;;;;8.27;3.90;;;;;;;13.60;76.67;96341.66;5134475;27;20551;-62
2021/06/09 03:35:08;;;;;;;8.63;4.15;;;;;;;13.63;76.49;96339.72;5134504;27;20094;-62
2021/06/09 03:37:38;;;;;;;14.07;3.90;;;;;;;13.68;76.51;96341.25;5134522;27;20020;-62
2021/06/09 03:40:12;;;;;;;5.70;3.20;;;;;;;13.67;76.60;96339.56;5134512;27;20027;-62
2021/06/09 03:42:42;;;;;;;5.80;3.53;;;;;;;13.75;76.80;96332.94;5134476;27;20042;-62
2021/06/09 03:45:08;;;;;;;8.52;3.95;;;;;;;13.77;76.65;96343.38;5134443;27;20031;-62
2021/06/09 03:47:35;;;;;;;7.95;3.90;;;;;;;13.79;76.71;96348.56;5134574;27;20102;-62
2021/06/09 03:50:02;;;;;;;9.00;3.90;;;;;;;13.82;76.69;96338.72;5134263;27;20026;-62
2021/06/09 03:52:28;;;;;;;7.15;3.65;;;;;;;13.88;76.52;96334.94;5134208;27;20030;-62
2021/06/09 03:54:57;;;;;;;3.92;3.22;;;;;;;13.94;76.63;96339.81;5134272;27;20051;-62
2021/06/09 03:57:25;;;;;;;7.13;3.30;;;;;;;13.97;76.14;96334.41;5133943;27;20102;-62
2021/06/09 03:59:52;;;;;;;8.60;3.50;;;;;;;14.00;76.40;96330.78;5134114;27;20552;-62
2021/06/09 04:02:19;;;;;;;6.43;3.63;;;;;;;14.09;76.75;96332.03;5134048;28;20106;-62
2021/06/09 04:04:46;;;;;;;7.72;3.35;;;;;;;14.14;76.60;96324.72;5134075;28;20026;-62
2021/06/09 04:07:15;;;;;;;9.38;3.58;;;;;;;14.24;77.00;96325.09;5134100;28;20020;-62
2021/06/09 04:09:42;;;;;;;15.43;4.20;;;;;;;14.22;76.87;96332.19;5134180;28;20434;-62
2021/06/09 04:12:10;;;;;;;6.63;4.03;;;;;;;14.22;77.41;96335.69;5133804;28;20039;-62
2021/06/09 04:14:41;;;;;;;8.82;4.45;;;;;;;14.32;77.24;96338.63;5133874;28;20050;-62
2021/06/09 04:17:07;;;;;;;13.15;4.03;;;;;;;14.42;77.66;96338.13;5134058;28;20496;-62
2021/06/09 04:19:34;;;;;;;5.28;3.97;;;;;;;14.57;78.17;96344.28;5133989;28;20042;-62
2021/06/09 04:22:03;;;;;;;6.25;3.95;;;;;;;14.69;77.85;96342.75;5133796;28;20027;-62
2021/06/09 04:24:31;;;;;;;5.20;3.75;;;;;;;14.80;77.57;96344.75;5133941;28;20027;-62
2021/06/09 04:26:58;;;;;;;5.78;3.78;;;;;;;14.94;77.61;96342.19;5133875;28;20033;-62
2021/06/09 04:29:24;;;;;;;13.40;3.95;;;;;;;15.07;77.85;96347.56;5133696;28;20064;-62
2021/06/09 04:31:52;;;;;;;5.68;3.35;;;;;;;15.15;77.78;96349.75;5133759;28;20012;-62
2021/06/09 04:34:17;;;;;;;9.07;3.97;;;;;;;15.27;77.19;96348.19;5133807;28;20041;-62
2021/06/09 04:36:43;;;;;;;5.18;3.78;;;;;;;15.35;77.10;96340.63;5133953;28;20023;-62
2021/06/09 04:39:11;;;;;;;5.72;3.30;;;;;;;15.47;77.22;96340.84;5133820;28;20385;-62
2021/06/09 04:41:36;;;;;;;3.58;3.20;;;;;;;15.60;77.10;96340.94;5133554;28;20038;-62
2021/06/09 04:44:02;;;;;;;3.70;3.38;;;;;;;15.69;76.77;96343.00;5133628;28;20035;-62
2021/06/09 04:46:29;;;;;;;5.78;3.35;;;;;;;15.82;76.41;96348.38;5133796;28;20063;-63
2021/06/09 04:49:14;;;;;;;5.10;3.83;;;;;;;15.94;76.51;96351.16;5133840;28;20041;-63
2021/06/09 04:51:40;;;;;;;4.05;3.65;;;;;;;16.04;76.51;96347.03;5133034;28;20175;-62
2021/06/09 04:54:07;;;;;;;10.60;4.53;;;;;;;16.17;76.50;96347.94;5133518;28;20106;-62
2021/06/09 04:56:36;;;;;;;9.90;3.85;;;;;;;16.29;76.45;96348.94;5133589;28;20024;-62
2021/06/09 04:59:04;;;;;;;5.05;3.60;;;;;;;16.38;76.35;96355.44;5133495;28;20019;-63
2021/06/09 05:01:30;;;;;;;7.57;3.35;;;;;;;16.49;76.40;96356.53;5133542;28;20062;-62
2021/06/09 05:03:57;;;;;;;4.07;3.22;;;;;;;16.63;76.33;96355.63;5133467;28;20112;-63
2021/06/09 05:06:23;;;;;;;4.65;3.50;;;;;;;16.76;76.22;96355.66;5133487;28;20148;-62
2021/06/09 05:08:49;;;;;;;3.88;3.35;;;;;;;16.88;75.36;96357.50;5133909;27;20047;-62
2021/06/09 05:11:21;;;;;;;8.15;3.60;;;;;;;17.03;74.54;96353.00;5137249;27;20027;-63
2021/06/09 05:13:50;;;;;;;5.85;3.83;;;;;;;17.15;75.35;96361.91;5137224;27;20057;-63
2021/06/09 05:16:20;;;;;;;4.05;3.65;;;;;;;17.27;74.84;96364.66;5137217;27;20016;-62
2021/06/09 05:18:48;;;;;;;14.52;4.82;;;;;;;17.37;74.90;96359.63;5137101;27;20024;-62
2021/06/09 05:21:19;;;;;;;4.80;3.63;;;;;;;17.51;75.19;96356.00;5136976;27;20075;-62
2021/06/09 05:23:51;;;;;;;12.13;3.70;;;;;;;17.64;74.05;96367.41;5137166;27;20030;-62
2021/06/09 05:26:18;;;;;;;6.72;3.40;;;;;;;17.79;73.96;96364.69;5137013;27;20039;-62
2021/06/09 05:28:48;;;;;;;5.15;3.30;;;;;;;17.95;73.76;96369.72;5136880;27;20011;-63
2021/06/09 05:31:16;;;;;;;5.70;3.00;;;;;;;18.13;73.35;96362.31;5136870;27;20023;-62
2021/06/09 05:33:43;;;;;;;4.13;3.40;;;;;;;18.31;72.63;96359.28;5136810;27;20055;-63
2021/06/09 05:36:10;;;;;;;3.30;3.00;;;;;;;18.46;72.21;96357.34;5136661;27;20029;-62
2021/06/09 05:38:37;;;;;;;8.32;3.50;;;;;;;18.65;71.94;96358.63;5136608;27;20018;-63
2021/06/09 05:41:03;;;;;;;7.78;3.22;;;;;;;18.82;71.49;96360.84;5136652;27;20163;-62
2021/06/09 05:43:29;;;;;;;8.15;2.95;;;;;;;18.99;70.66;96358.75;5136499;27;20500;-63
2021/06/09 05:45:56;;;;;;;3.83;3.35;;;;;;;19.16;71.10;96360.16;5136480;27;20613;-63
2021/06/09 05:48:22;;;;;;;12.07;3.35;;;;;;;19.37;70.99;96363.94;5136550;27;20055;-62
2021/06/09 05:50:54;;;;;;;6.00;3.42;;;;;;;19.51;71.98;96361.06;5136671;27;20023;-62
2021/06/09 05:53:24;;;;;;;3.25;2.92;;;;;;;19.73;72.18;96363.84;5136446;27;20019;-63
2021/06/09 05:55:50;;;;;;;5.30;2.88;;;;;;;19.90;71.18;96358.06;5136488;27;20094;-63
2021/06/09 05:58:18;;;;;;;6.57;3.50;;;;;;;20.16;69.73;96368.47;5136301;27;20111;-63
2021/06/09 06:00:44;;;;;;;12.10;3.28;;;;;;;20.42;68.67;96365.53;5136302;27;20121;-63
2021/06/09 06:03:10;;;;;;;9.98;3.15;;;;;;;20.69;68.24;96358.94;5136026;27;20024;-63
2021/06/09 06:05:39;;;;;;;7.75;2.72;;;;;;;21.13;66.25;96362.50;5136011;27;20027;-63
2021/06/09 06:08:05;;;;;;;6.93;3.08;;;;;;;21.51;64.84;96362.88;5136046;27;20049;-63
2021/06/09 06:10:30;;;;;;;7.50;2.40;;;;;;;21.85;64.45;96365.31;5136015;27;20425;-63
2021/06/09 06:12:57;;;;;;;4.43;2.75;;;;;;;22.04;62.94;96367.22;5135811;27;20123;-63
2021/06/09 06:15:24;;;;;;;12.57;2.90;;;;;;;22.19;63.75;96366.84;5135859;27;20050;-62
2021/06/09 06:17:50;;;;;;;5.88;2.80;;;;;;;22.37;63.42;96364.38;5135884;27;20045;-63
2021/06/09 06:20:22;;;;;;;7.90;3.05;;;;;;;22.47;62.63;96367.06;5135841;27;20098;-63
2021/06/09 06:22:50;;;;;;;5.47;2.47;;;;;;;22.72;61.81;96364.88;5135906;27;20114;-62
2021/06/09 06:25:17;;;;;;;8.40;2.25;;;;;;;23.01;60.22;96363.19;5135825;27;20392;-63
2021/06/09 06:27:45;;;;;;;3.63;2.63;;;;;;;23.48;58.43;96357.97;5135694;27;20027;-63
2021/06/09 06:30:12;;;;;;;9.40;2.60;;;;;;;24.09;58.75;96357.63;5135688;27;20060;-63
2021/06/09 06:32:39;;;;;;;6.03;2.45;;;;;;;24.65;56.12;96351.38;5135957;27;20421;-63
2021/06/09 06:35:10;;;;;;;3.13;2.33;;;;;;;24.64;49.01;96356.88;5135521;27;20099;-62
2021/06/09 06:37:35;;;;;;;5.53;2.05;;;;;;;24.29;50.79;96359.38;5135876;27;20062;-63
2021/06/09 06:40:01;;;;;;;4.22;2.10;;;;;;;23.84;49.87;96356.47;5135472;27;20509;-62
2021/06/09 06:42:27;;;;;;;4.00;2.33;;;;;;;23.37;52.45;96352.81;5135334;27;20027;-62
2021/06/09 06:44:53;;;;;;;4.82;2.45;;;;;;;23.38;51.77;96356.31;5135372;27;20034;-63
2021/06/09 06:47:19;;;;;;;12.20;2.58;;;;;;;23.50;53.99;96357.81;5135344;27;20023;-62
2021/06/09 06:49:47;;;;;;;7.05;2.80;;;;;;;23.39;54.28;96350.00;5135326;27;20019;-63
2021/06/09 06:52:13;;;;;;;6.20;2.28;;;;;;;23.13;50.94;96353.22;5135211;27;20055;-62
2021/06/09 06:54:38;;;;;;;2.95;2.40;;;;;;;22.74;53.12;96357.59;5135184;27;20062;-62
2021/06/09 06:57:04;;;;;;;5.18;2.47;;;;;;;22.53;53.85;96352.34;5135265;27;20068;-62
2021/06/09 06:59:30;;;;;;;7.78;2.42;;;;;;;22.61;54.68;96355.19;5135070;27;20031;-62
2021/06/09 07:01:57;;;;;;;4.72;2.75;;;;;;;22.61;56.03;96352.53;5135235;27;20042;-62
2021/06/09 07:04:24;;;;;;;3.53;2.70;;;;;;;22.44;55.29;96356.66;5135103;27;20023;-62
2021/06/09 07:06:51;;;;;;;2.97;2.70;;;;;;;22.39;55.28;96359.75;5135082;27;20020;-62
2021/06/09 07:09:19;;;;;;;3.63;2.60;;;;;;;22.37;55.72;96364.38;5134869;27;20050;-62
2021/06/09 07:11:46;;;;;;;3.95;2.65;;;;;;;22.32;56.25;96364.78;5134848;27;20034;-62
2021/06/09 07:14:14;;;;;;;2.78;2.50;;;;;;;22.03;54.57;96364.72;5134659;27;20400;-62
2021/06/09 07:16:42;;;;;;;5.45;2.80;;;;;;;21.99;55.77;96357.94;5134838;27;20094;-62
2021/06/09 07:19:10;;;;;;;7.82;3.03;;;;;;;21.91;54.96;96356.78;5134635;27;20488;-62
2021/06/09 07:21:38;;;;;;;5.93;3.10;;;;;;;21.86;56.49;96364.34;5134653;27;20376;-62
2021/06/09 07:24:04;;;;;;;3.50;2.85;;;;;;;21.93;55.82;96351.34;5134697;27;20098;-62
2021/06/09 07:26:36;;;;;;;4.00;2.97;;;;;;;21.98;55.24;96358.94;5134592;27;20015;-62
2021/06/09 07:29:02;;;;;;;5.18;3.38;;;;;;;22.05;56.70;96365.41;5134560;27;20027;-62
2021/06/09 07:31:34;;;;;;;7.95;3.92;;;;;;;22.07;54.64;96366.94;5134170;27;20030;-62
2021/06/09 07:34:03;;;;;;;3.70;3.10;;;;;;;22.15;56.18;96360.13;5134615;27;20030;-62
2021/06/09 07:36:35;;;;;;;4.85;3.47;;;;;;;22.40;56.35;96365.91;5134458;27;20026;-62
2021/06/09 07:39:11;;;;;;;6.03;3.65;;;;;;;22.49;55.98;96370.44;5134576;27;20026;-62
2021/06/09 07:41:41;;;;;;;7.45;4.38;;;;;;;22.88;57.05;96371.47;5134406;27;20019;-62
2021/06/09 07:44:07;;;;;;;7.18;4.78;;;;;;;23.33;54.55;96368.22;5134265;27;20417;-63
2021/06/09 07:46:33;;;;;;;4.20;3.50;;;;;;;23.85;55.23;96369.69;5134265;27;20094;-63
2021/06/09 07:49:13;;;;;;;7.93;4.28;;;;;;;24.26;51.98;96357.00;5134288;27;20068;-63
2021/06/09 07:51:45;;;;;;;8.05;3.72;;;;;;;24.64;52.11;96362.22;5134336;27;20038;-63
2021/06/09 07:54:12;;;;;;;5.18;3.25;;;;;;;24.76;48.81;96366.38;5134250;27;20392;-63
2021/06/09 07:56:40;;;;;;;9.18;3.17;;;;;;;25.02;49.28;96370.16;5134136;27;20015;-63
2021/06/09 07:59:11;;;;;;;4.28;3.22;;;;;;;24.96;48.91;96369.75;5133994;27;20025;-63
2021/06/09 08:01:41;;;;;;;3.20;2.83;;;;;;;25.15;49.17;96375.09;5134012;27;20042;-63
2021/06/09 08:04:15;;;;;;;3.30;3.00;;;;;;;25.16;47.59;96376.81;5133990;28;20062;-63
2021/06/09 08:06:44;;;;;;;3.72;2.78;;;;;;;25.23;48.03;96370.66;5133942;28;20054;-63
2021/06/09 08:09:10;;;;;;;3.03;2.70;;;;;;;25.30;47.32;96365.53;5133962;28;20106;-62
2021/06/09 08:11:36;;;;;;;4.90;3.35;;;;;;;25.31;48.47;96364.53;5133774;28;20107;-63
2021/06/09 08:14:03;;;;;;;5.72;3.25;;;;;;;25.55;48.96;96363.03;5133841;28;20043;-63
2021/06/09 08:16:32;;;;;;;3.75;3.17;;;;;;;25.61;45.37;96367.78;5134104;28;20019;-63
2021/06/09 08:19:02;;;;;;;3.53;2.80;;;;;;;25.50;46.69;96370.72;5133891;28;20488;-63
2021/06/09 08:21:27;;;;;;;5.70;2.60;;;;;;;25.39;46.45;96365.59;5133837;28;20027;-63
2021/06/09 08:23:53;;;;;;;7.35;3.20;;;;;;;25.45;46.98;96373.00;5133780;28;20377;-63
2021/06/09 08:26:23;;;;;;;6.57;2.97;;;;;;;25.61;45.73;96366.94;5133973;28;20024;-63
2021/06/09 08:28:49;;;;;;;8.32;3.20;;;;;;;25.67;45.74;96365.50;5133978;28;20023;-63
2021/06/09 08:31:21;;;;;;;5.00;2.60;;;;;;;26.02;45.00;96369.00;5133811;28;20534;-63
2021/06/09 08:33:49;;;;;;;6.13;2.90;;;;;;;26.52;43.63;96371.94;5133962;28;20495;-63
2021/06/09 08:36:15;;;;;;;4.18;2.88;;;;;;;26.92;41.21;96366.78;5133724;28;20366;-64
2021/06/09 08:38:43;;;;;;;3.55;2.70;;;;;;;26.77;40.38;96363.91;5133716;28;20024;-64
2021/06/09 08:41:10;;;;;;;4.50;2.80;;;;;;;26.30;40.90;96371.50;5133704;28;20066;-63
2021/06/09 08:43:41;;;;;;;6.53;2.65;;;;;;;26.10;42.98;96368.22;5133666;27;20033;-63
2021/06/09 08:46:09;;;;;;;9.95;2.95;;;;;;;26.16;42.33;96370.25;5137689;27;20023;-63
2021/06/09 08:48:37;;;;;;;5.80;2.17;;;;;;;26.39;39.09;96374.22;5137781;27;20026;-63
2021/06/09 08:51:05;;;;;;;4.63;2.65;;;;;;;26.36;39.00;96370.84;5137825;27;20020;-63
2021/06/09 08:53:33;;;;;;;5.93;2.40;;;;;;;26.68;41.63;96370.25;5137900;27;20110;-63
2021/06/09 08:55:59;;;;;;;12.23;3.45;;;;;;;26.88;43.66;96365.44;5137602;27;20031;-63
2021/06/09 08:58:25;;;;;;;5.28;2.90;;;;;;;27.12;39.98;96367.31;5137442;27;20015;-63
2021/06/09 09:00:51;;;;;;;5.40;2.60;;;;;;;27.02;39.61;96376.56;5137501;27;20027;-63
2021/06/09 09:03:16;;;;;;;4.65;2.17;;;;;;;27.02;36.77;96365.84;5137299;27;20480;-63
2021/06/09 09:05:42;;;;;;;3.50;2.13;;;;;;;27.10;37.00;96368.50;5137299;27;20031;-63
2021/06/09 09:08:09;;;;;;;5.63;2.30;;;;;;;27.05;35.49;96365.47;5137365;27;20075;-63
2021/06/09 09:10:35;;;;;;;2.78;2.15;;;;;;;27.08;37.75;96362.47;5137256;27;20107;-63
2021/06/09 09:13:01;;;;;;;4.18;2.03;;;;;;;26.77;37.07;96358.56;5137075;27;20067;-63
2021/06/09 09:15:27;;;;;;;3.15;2.03;;;;;;;26.60;39.78;96363.03;5137258;27;20054;-63
2021/06/09 09:18:01;;;;;;;3.67;2.03;;;;;;;26.68;37.19;96357.69;5137186;27;20027;-63
2021/06/09 09:20:31;;;;;;;7.22;1.92;;;;;;;26.84;38.15;96354.19;5137167;27;20019;-63
2021/06/09 09:22:59;;;;;;;3.75;2.15;;;;;;;27.05;38.57;96346.69;5136853;27;20035;-63
2021/06/09 09:25:31;;;;;;;4.47;2.25;;;;;;;26.97;38.66;96344.84;5137097;27;20444;-63
2021/06/09 09:28:01;;;;;;;2.83;2.63;;;;;;;26.93;41.78;96351.50;5136930;27;20454;-63
2021/06/09 09:30:30;;;;;;;4.93;2.25;;;;;;;27.02;39.92;96353.25;5136966;27;20015;-63
2021/06/09 09:33:06;;;;;;;7.93;2.40;;;;;;;27.09;37.83;96348.06;5136717;27;20031;-63
2021/06/09 09:35:38;;;;;;;4.68;2.50;;;;;;;27.11;41.80;96352.25;5136772;27;20039;-63
2021/06/09 09:38:11;;;;;;;2.70;2.50;;;;;;;27.00;41.78;96356.09;5136665;27;20015;-63
2021/06/09 09:40:37;;;;;;;6.40;2.10;;;;;;;27.23;41.26;96351.88;5118227;27;20039;-63
2021/06/09 09:43:03;;;;;;;6.05;2.20;;;;;;;27.31;38.54;96343.84;5136552;27;20027;-64
2021/06/09 09:45:34;;;;;;;5.25;2.40;;;;;;;26.86;38.96;96346.84;5136450;27;20468;-64
2021/06/09 09:48:19;;;;;;;2.45;2.25;;;;;;;26.95;39.38;96341.47;5136575;27;20488;-63
2021/06/09 09:50:50;;;;;;;2.97;2.15;;;;;;;27.30;40.38;96334.09;5136586;27;20016;-63
2021/06/09 09:53:27;;;;;;;5.55;2.10;;;;;;;27.67;41.11;96331.06;5136496;27;20027;-63
2021/06/09 09:56:03;;;;;;;2.47;2.28;;;;;;;27.25;39.56;96336.47;5136111;27;20023;-63
2021/06/09 09:58:31;;;;;;;4.10;1.90;;;;;;;26.82;39.35;96331.25;5136314;27;20034;-63
2021/06/09 10:01:15;;;;;;;7.43;2.47;;;;;;;26.24;42.49;96327.41;5136186;27;20053;-63
2021/06/09 10:03:42;;;;;;;4.05;2.38;;;;;;;26.23;44.11;96332.91;5136264;27;20409;-63
2021/06/09 10:06:26;;;;;;;4.20;2.20;;;;;;;26.65;43.88;96323.16;5117891;27;20073;-63
2021/06/09 10:08:53;;;;;;;2.35;2.10;;;;;;;27.00;43.33;96323.06;5136214;27;20115;-63
2021/06/09 10:11:21;;;;;;;3.65;2.00;;;;;;;27.36;41.65;96319.19;5136084;27;20057;-63
2021/06/09 10:13:48;;;;;;;5.00;2.05;;;;;;;27.58;38.85;96320.31;5135848;27;20564;-63
2021/06/09 10:16:27;;;;;;;3.97;2.10;;;;;;;27.37;40.08;96315.47;5136093;27;20482;-63
2021/06/09 10:19:00;;;;;;;6.05;2.40;;;;;;;26.98;38.71;96320.56;5135949;27;20039;-64
2021/06/09 10:21:28;;;;;;;4.47;2.15;;;;;;;26.65;39.88;96311.59;5135824;27;20491;-63
2021/06/09 10:23:59;;;;;;;7.82;2.45;;;;;;;26.37;41.58;96313.56;5135762;27;20448;-63
2021/06/09 10:26:26;;;;;;;6.28;2.65;;;;;;;25.96;44.14;96314.25;5135816;27;20051;-63
2021/06/09 10:29:31;;;;;;;4.57;2.65;;;;;;;25.20;45.88;96316.63;5135564;27;20027;-63
2021/06/09 10:32:05;;;;;;;5.70;2.40;;;;;;;24.89;46.37;96307.19;5032603;28;20120;-63
2021/06/09 10:34:33;;;;;;;4.72;2.53;;;;;;;24.54;46.38;96307.03;5123009;27;20091;-63
2021/06/09 10:37:00;;;;;;;3.30;2.63;;;;;;;24.50;46.65;96305.63;5135560;27;20028;-63
2021/06/09 10:39:29;;;;;;;7.25;2.80;;;;;;;24.47;46.96;96305.97;5135445;27;20021;-63
2021/06/09 10:41:57;;;;;;;5.50;2.55;;;;;;;24.33;48.56;96318.84;5135460;27;20080;-63
2021/06/09 10:44:26;;;;;;;3.80;2.47;;;;;;;24.24;49.24;96333.09;5135402;27;20523;-63
2021/06/09 10:46:58;;;;;;;9.13;3.38;;;;;;;24.00;53.51;96355.84;5135501;27;20067;-63
2021/06/09 10:49:25;;;;;;;14.60;6.43;;;;;;;23.23;58.76;96380.72;5135244;27;20365;-62
2021/06/09 10:51:54;;;;;;;11.95;2.80;;;;;;;22.40;56.33;96389.91;5116850;27;20026;-62
2021/06/09 10:54:24;;;;;;;14.32;3.63;;;;;;;21.32;55.73;96393.72;5135225;27;20027;-61
2021/06/09 10:56:51;;;;;;;8.90;2.30;;;;;;;20.79;52.50;96369.63;5135277;27;20042;-62
2021/06/09 10:59:24;;;;;;;2.30;1.48;;;;;;;20.67;47.63;96355.53;5135231;27;20022;-62
2021/06/09 11:01:54;;;;;;;22.38;2.70;;;;;;;20.67;58.65;96354.69;5135095;27;20045;-61
2021/06/09 11:04:21;;;;;;;12.70;2.58;;;;;;;20.40;58.62;96348.00;5135187;27;20110;-62
2021/06/09 11:06:51;;;;;;;7.38;2.78;;;;;;;20.26;61.76;96349.97;5134334;27;20516;-61
2021/06/09 11:09:25;;;;;;;9.98;2.65;;;;;;;20.01;63.58;96337.81;5135102;27;20023;-62
2021/06/09 11:12:12;;;;;;;17.50;2.80;;;;;;;19.85;65.14;96346.13;5134863;27;20487;-62
2021/06/09 11:14:52;;;;;;;13.05;3.08;;;;;;;19.61;66.35;96334.69;5134835;27;20035;-61
2021/06/09 11:17:39;;;;;;;17.92;3.72;;;;;;;19.43;66.70;96310.44;5134808;27;20020;-61
2021/06/09 11:20:10;;;;;;;10.55;3.80;;;;;;;19.45;68.40;96304.03;5134841;27;20072;-61
2021/06/09 11:22:46;;;;;;;10.90;3.80;;;;;;;19.53;69.08;96299.94;5134778;27;20358;-61
2021/06/09 11:25:22;;;;;;;6.93;3.70;;;;;;;19.48;69.36;96292.38;5134639;27;20023;-62
2021/06/09 11:28:22;;;;;;;13.57;3.40;;;;;;;19.40;69.82;96286.81;5134552;27;20027;-61
2021/06/09 11:30:50;;;;;;;9.48;3.15;;;;;;;19.44;70.13;96286.44;5126265;27;20039;-62
2021/06/09 11:33:35;;;;;;;9.65;3.50;;;;;;;19.45;71.23;96279.34;5134606;27;20070;-61
2021/06/09 11:36:07;;;;;;;4.35;3.95;;;;;;;19.61;73.11;96276.31;5134580;27;20031;-62
2021/06/09 11:38:45;;;;;;;6.97;2.97;;;;;;;19.75;72.33;96275.19;5134360;27;20037;-61
2021/06/09 11:41:15;;;;;;;5.50;3.38;;;;;;;20.02;72.76;96273.16;5134538;27;20030;-62
2021/06/09 11:43:46;;;;;;;17.88;4.10;;;;;;;20.17;73.78;96261.28;5134338;27;20475;-61